createdAt,value
2023-05-13T00:01:57.786Z,118.50
2023-05-13T00:04:25.255Z,118.80
2023-05-13T00:06:52.319Z,119.40
2023-05-13T00:09:19.282Z,120.03
2023-05-13T00:11:46.756Z,118.47
2023-05-13T00:14:13.940Z,118.07
2023-05-13T00:16:41.560Z,119.10
2023-05-13T00:19:09.092Z,119.67
2023-05-13T00:21:37.021Z,119.83
2023-05-13T00:24:05.094Z,119.27
2023-05-13T00:26:32.618Z,117.70
2023-05-13T00:29:00.333Z,117.87
2023-05-13T00:31:27.854Z,119.00
2023-05-13T00:33:55.361Z,118.23
2023-05-13T00:36:22.767Z,118.90
2023-05-13T00:38:50.139Z,119.57
2023-05-13T00:41:18.807Z,118.87
2023-05-13T00:43:46.369Z,117.33
2023-05-13T00:46:15.558Z,118.20
2023-05-13T00:48:42.704Z,118.30
2023-05-13T00:51:10.139Z,118.27
2023-05-13T00:53:39.327Z,118.40
2023-05-13T00:56:06.574Z,118.10
2023-05-13T00:58:34.437Z,118.57
2023-05-13T01:01:50.896Z,117.47
2023-05-13T01:05:07.021Z,118.50
2023-05-13T01:08:37.637Z,118.67
2023-05-13T01:11:15.802Z,117.57
2023-05-13T01:13:48.571Z,117.20
2023-05-13T01:16:42.091Z,117.60
2023-05-13T01:19:44.836Z,118.47
2023-05-13T01:22:12.863Z,117.37
2023-05-13T01:24:40.114Z,117.57
2023-05-13T01:27:08.382Z,118.20
2023-05-13T01:29:36.302Z,117.87
2023-05-13T01:32:05.560Z,117.90
2023-05-13T01:34:35.936Z,119.10
2023-05-13T01:37:03.301Z,118.10
2023-05-13T01:39:32.357Z,118.57
2023-05-13T01:42:05.659Z,117.77
2023-05-13T01:44:32.965Z,116.57
2023-05-13T01:47:00.196Z,118.07
2023-05-13T01:49:28.148Z,117.47
2023-05-13T01:51:55.992Z,118.33
2023-05-13T01:54:23.020Z,119.27
2023-05-13T01:56:55.383Z,117.87
2023-05-13T01:59:22.935Z,118.83
2023-05-13T02:01:50.408Z,117.33
2023-05-13T02:04:19.194Z,119.17
2023-05-13T02:06:47.529Z,118.00
2023-05-13T02:09:16.195Z,117.47
2023-05-13T02:11:44.786Z,118.97
2023-05-13T02:14:12.483Z,118.70
2023-05-13T02:16:39.881Z,119.23
2023-05-13T02:19:07.823Z,118.57
2023-05-13T02:21:35.338Z,118.43
2023-05-13T02:24:02.864Z,118.97
2023-05-13T02:26:30.032Z,118.60
2023-05-13T02:28:57.625Z,119.20
2023-05-13T02:31:25.532Z,118.17
2023-05-13T02:33:52.543Z,118.60
2023-05-13T02:36:19.987Z,118.10
2023-05-13T02:38:48.238Z,118.87
2023-05-13T02:41:17.081Z,118.20
2023-05-13T02:43:44.534Z,118.60
2023-05-13T02:46:12.014Z,118.50
2023-05-13T02:48:39.536Z,117.83
2023-05-13T02:51:06.539Z,118.57
2023-05-13T02:53:34.145Z,119.17
2023-05-13T02:56:05.306Z,117.57
2023-05-13T02:58:32.884Z,119.03
2023-05-13T03:01:00.687Z,118.30
2023-05-13T03:03:28.945Z,118.10
2023-05-13T03:05:56.837Z,118.80
2023-05-13T03:08:24.327Z,118.57
2023-05-13T03:10:52.595Z,117.93
2023-05-13T03:13:19.665Z,117.07
2023-05-13T03:15:47.076Z,118.50
2023-05-13T03:18:14.889Z,118.70
2023-05-13T03:20:42.348Z,117.47
2023-05-13T03:23:09.796Z,117.80
2023-05-13T03:25:36.977Z,118.67
2023-05-13T03:28:04.631Z,118.00
2023-05-13T03:30:37.274Z,118.10
2023-05-13T03:33:09.267Z,116.97
2023-05-13T03:35:36.436Z,118.77
2023-05-13T03:38:03.950Z,116.97
2023-05-13T03:40:32.499Z,117.27
2023-05-13T03:42:59.954Z,116.97
2023-05-13T03:45:29.172Z,118.37
2023-05-13T03:48:01.182Z,118.60
2023-05-13T03:50:29.795Z,118.10
2023-05-13T03:52:57.223Z,118.30
2023-05-13T03:55:24.394Z,118.20
2023-05-13T03:57:51.898Z,117.27
2023-05-13T04:00:21.595Z,118.30
2023-05-13T04:02:49.143Z,117.90
2023-05-13T04:05:17.617Z,118.47
2023-05-13T04:07:46.528Z,118.07
2023-05-13T04:10:15.685Z,116.33
2023-05-13T04:12:43.057Z,117.60
2023-05-13T04:15:10.780Z,116.90
2023-05-13T04:17:38.295Z,118.87
2023-05-13T04:20:08.166Z,117.80
2023-05-13T04:22:35.753Z,118.37
2023-05-13T04:25:03.372Z,116.87
2023-05-13T04:27:30.531Z,117.47
2023-05-13T04:30:08.337Z,116.27
2023-05-13T04:32:37.416Z,118.70
2023-05-13T04:35:07.295Z,117.60
2023-05-13T04:37:35.371Z,117.80
2023-05-13T04:40:08.082Z,118.27
2023-05-13T04:42:35.617Z,117.43
2023-05-13T04:45:03.066Z,117.77
2023-05-13T04:47:30.241Z,117.97
2023-05-13T04:49:57.777Z,117.30
2023-05-13T04:52:25.852Z,117.80
2023-05-13T04:54:52.806Z,117.57
2023-05-13T04:57:20.085Z,117.07
2023-05-13T04:59:47.098Z,117.30
2023-05-13T05:02:16.817Z,117.20
2023-05-13T05:04:44.663Z,117.37
2023-05-13T05:07:14.270Z,117.53
2023-05-13T05:09:41.532Z,117.40
2023-05-13T05:12:09.193Z,116.40
2023-05-13T05:14:39.966Z,117.40
2023-05-13T05:17:07.734Z,117.80
2023-05-13T05:19:35.010Z,117.80
2023-05-13T05:22:02.647Z,118.03
2023-05-13T05:24:30.094Z,117.57
2023-05-13T05:26:57.133Z,117.50
2023-05-13T05:29:24.926Z,116.90
2023-05-13T05:31:52.528Z,117.67
2023-05-13T05:34:20.248Z,117.57
2023-05-13T05:36:47.446Z,117.73
2023-05-13T05:39:16.099Z,116.97
2023-05-13T05:41:43.135Z,117.37
2023-05-13T05:44:13.272Z,116.83
2023-05-13T05:46:40.254Z,117.70
2023-05-13T05:49:08.768Z,117.47
2023-05-13T05:51:36.813Z,117.43
2023-05-13T05:54:05.591Z,116.77
2023-05-13T05:56:32.985Z,116.77
2023-05-13T05:59:00.856Z,117.20
2023-05-13T06:01:33.670Z,117.07
2023-05-13T06:04:01.231Z,117.30
2023-05-13T06:06:28.450Z,117.07
2023-05-13T06:08:55.673Z,116.73
2023-05-13T06:11:22.766Z,116.87
2023-05-13T06:13:50.942Z,117.37
2023-05-13T06:16:18.433Z,117.17
2023-05-13T06:18:45.573Z,116.73
2023-05-13T06:21:12.676Z,116.60
2023-05-13T06:23:40.775Z,117.23
2023-05-13T06:26:08.174Z,117.27
2023-05-13T06:28:35.881Z,116.70
2023-05-13T06:31:03.476Z,116.97
2023-05-13T06:33:31.054Z,116.70
2023-05-13T06:35:58.094Z,117.27
2023-05-13T06:38:26.189Z,116.87
2023-05-13T06:40:57.082Z,116.87
2023-05-13T06:43:31.006Z,116.87
2023-05-13T06:45:59.906Z,116.57
2023-05-13T06:48:28.997Z,116.40
2023-05-13T06:50:56.602Z,116.70
2023-05-13T06:53:23.551Z,115.60
2023-05-13T06:55:50.558Z,116.97
2023-05-13T06:58:17.594Z,116.37
2023-05-13T07:00:46.551Z,116.70
2023-05-13T07:03:13.700Z,116.33
2023-05-13T07:05:40.944Z,116.80
2023-05-13T07:08:17.571Z,116.90
2023-05-13T07:10:45.205Z,116.60
2023-05-13T07:13:12.820Z,116.30
2023-05-13T07:15:40.856Z,115.90
2023-05-13T07:18:09.589Z,116.80
2023-05-13T07:20:37.562Z,116.43
2023-05-13T07:23:04.747Z,116.40
2023-05-13T07:25:32.288Z,116.30
2023-05-13T07:27:59.703Z,116.40
2023-05-13T07:30:26.806Z,116.70
2023-05-13T07:32:54.394Z,116.83
2023-05-13T07:35:22.102Z,116.33
2023-05-13T07:37:49.243Z,116.87
2023-05-13T07:40:17.806Z,116.77
2023-05-13T07:42:44.826Z,116.50
2023-05-13T07:45:12.384Z,116.37
2023-05-13T07:47:40.223Z,116.77
2023-05-13T07:50:08.583Z,116.87
2023-05-13T07:52:36.259Z,116.67
2023-05-13T07:55:03.768Z,116.77
2023-05-13T07:57:31.240Z,115.90
2023-05-13T08:00:01.945Z,116.50
2023-05-13T08:03:53.617Z,116.50
2023-05-13T08:06:21.283Z,116.50
2023-05-13T08:08:48.251Z,116.70
2023-05-13T08:11:15.793Z,117.07
2023-05-13T08:13:43.301Z,116.57
2023-05-13T08:16:10.842Z,116.67
2023-05-13T08:18:38.322Z,116.57
2023-05-13T08:21:05.797Z,116.80
2023-05-13T08:23:44.086Z,116.67
2023-05-13T08:26:12.322Z,116.67
2023-05-13T08:28:43.779Z,116.53
2023-05-13T08:31:13.826Z,116.50
2023-05-13T08:33:42.543Z,116.87
2023-05-13T08:36:10.016Z,116.30
2023-05-13T08:38:37.230Z,116.67
2023-05-13T08:41:09.493Z,115.93
2023-05-13T08:43:43.443Z,116.87
2023-05-13T08:46:12.750Z,116.23
2023-05-13T08:48:42.833Z,116.70
2023-05-13T08:51:10.577Z,116.67
2023-05-13T08:53:40.711Z,115.87
2023-05-13T08:56:11.775Z,116.07
2023-05-13T08:58:39.467Z,115.40
2023-05-13T09:01:09.856Z,116.27
2023-05-13T09:04:02.434Z,116.17
2023-05-13T09:06:29.659Z,114.93
2023-05-13T09:08:57.021Z,115.77
2023-05-13T09:11:24.659Z,115.53
2023-05-13T09:14:05.584Z,115.50
2023-05-13T09:16:33.733Z,115.50
2023-05-13T09:19:06.641Z,115.87
2023-05-13T09:21:38.811Z,115.60
2023-05-13T09:24:18.806Z,115.80
2023-05-13T09:26:47.112Z,115.63
2023-05-13T09:29:30.649Z,115.50
2023-05-13T09:32:01.502Z,115.70
2023-05-13T09:34:35.527Z,115.70
2023-05-13T09:37:09.309Z,116.20
2023-05-13T09:39:42.018Z,115.73
2023-05-13T09:42:17.634Z,116.33
2023-05-13T09:44:49.668Z,115.90
2023-05-13T09:47:18.073Z,116.07
2023-05-13T09:49:56.592Z,115.83
2023-05-13T09:52:23.681Z,116.40
2023-05-13T09:54:51.150Z,115.80
2023-05-13T09:57:18.643Z,116.30
2023-05-13T09:59:46.065Z,116.40
2023-05-13T10:02:15.732Z,115.27
2023-05-13T10:04:43.870Z,116.20
2023-05-13T10:07:13.074Z,115.60
2023-05-13T10:09:46.234Z,115.90
2023-05-13T10:12:15.302Z,116.03
2023-05-13T10:14:43.643Z,115.90
2023-05-13T10:17:11.632Z,115.60
2023-05-13T10:19:39.567Z,116.40
2023-05-13T10:22:08.147Z,116.40
2023-05-13T10:24:38.029Z,115.67
2023-05-13T10:27:08.278Z,116.00
2023-05-13T10:29:39.033Z,116.40
2023-05-13T10:32:08.060Z,116.77
2023-05-13T10:34:37.407Z,116.27
2023-05-13T10:37:47.720Z,116.13
2023-05-13T10:40:45.342Z,116.00
2023-05-13T10:43:20.874Z,116.37
2023-05-13T10:45:52.108Z,116.37
2023-05-13T10:48:20.326Z,115.80
2023-05-13T10:51:18.041Z,115.90
2023-05-13T10:53:56.086Z,116.87
2023-05-13T10:56:27.793Z,115.97
2023-05-13T10:59:01.367Z,116.27
2023-05-13T11:01:31.029Z,116.03
2023-05-13T11:04:03.201Z,115.27
2023-05-13T11:06:38.562Z,115.83
2023-05-13T11:09:09.078Z,116.07
2023-05-13T11:11:36.966Z,115.63
2023-05-13T11:14:23.494Z,116.13
2023-05-13T11:17:06.513Z,116.07
2023-05-13T11:19:49.060Z,115.90
2023-05-13T11:22:24.011Z,115.73
2023-05-13T11:25:13.176Z,116.17
2023-05-13T11:27:42.856Z,116.30
2023-05-13T11:30:30.446Z,116.07
2023-05-13T11:33:00.222Z,116.17
2023-05-13T11:35:33.596Z,116.10
2023-05-13T11:38:04.035Z,116.33
2023-05-13T11:40:37.525Z,116.10
2023-05-13T11:43:06.194Z,116.17
2023-05-13T11:45:33.872Z,115.77
2023-05-13T11:48:22.115Z,115.33
2023-05-13T11:50:51.984Z,115.63
2023-05-13T11:53:22.975Z,114.83
2023-05-13T11:55:50.213Z,115.57
2023-05-13T11:58:17.249Z,115.07
2023-05-13T12:00:46.529Z,115.20
2023-05-13T12:03:16.008Z,115.17
2023-05-13T12:05:44.557Z,114.57
2023-05-13T12:08:12.415Z,115.30
2023-05-13T12:10:45.819Z,115.50
2023-05-13T12:13:13.732Z,114.90
2023-05-13T12:15:42.279Z,115.40
2023-05-13T12:18:09.886Z,115.40
2023-05-13T12:20:38.130Z,115.63
2023-05-13T12:23:06.520Z,114.90
2023-05-13T12:25:46.458Z,115.10
2023-05-13T12:28:22.232Z,115.67
2023-05-13T12:30:57.730Z,116.17
2023-05-13T12:33:30.755Z,115.70
2023-05-13T12:36:36.132Z,115.33
2023-05-13T12:39:09.716Z,115.77
2023-05-13T12:41:42.395Z,115.50
2023-05-13T12:44:14.720Z,115.93
2023-05-13T12:46:53.538Z,116.60
2023-05-13T12:49:21.236Z,115.83
2023-05-13T12:51:48.628Z,116.43
2023-05-13T12:54:16.293Z,116.10
2023-05-13T12:56:43.360Z,116.37
2023-05-13T12:59:10.852Z,115.80
2023-05-13T13:01:37.916Z,115.70
2023-05-13T13:04:06.613Z,115.90
2023-05-13T13:06:34.217Z,115.47
2023-05-13T13:09:01.787Z,115.40
2023-05-13T13:11:29.793Z,115.50
2023-05-13T13:13:57.327Z,115.30
2023-05-13T13:16:24.847Z,115.17
2023-05-13T13:18:54.294Z,114.97
2023-05-13T13:21:22.832Z,112.63
2023-05-13T13:23:49.870Z,114.67
2023-05-13T13:26:20.987Z,114.77
2023-05-13T13:28:51.042Z,114.40
2023-05-13T13:31:18.573Z,113.20
2023-05-13T13:33:46.181Z,113.97
2023-05-13T13:36:13.150Z,113.50
2023-05-13T13:38:40.167Z,113.73
2023-05-13T13:41:07.520Z,114.07
2023-05-13T13:43:34.958Z,115.00
2023-05-13T13:46:02.502Z,113.80
2023-05-13T13:48:29.923Z,114.37
2023-05-13T13:51:00.288Z,114.23
2023-05-13T13:53:28.420Z,115.07
2023-05-13T13:55:56.150Z,114.67
2023-05-13T13:58:23.783Z,114.23
2023-05-13T14:00:52.600Z,114.60
2023-05-13T14:03:20.318Z,114.97
2023-05-13T14:05:48.326Z,115.00
2023-05-13T14:08:15.538Z,115.67
2023-05-13T14:10:42.725Z,115.97
2023-05-13T14:13:10.496Z,115.63
2023-05-13T14:15:39.110Z,116.67
2023-05-13T14:18:08.304Z,116.63
2023-05-13T14:20:36.153Z,120.60
2023-05-13T14:23:05.630Z,116.87
2023-05-13T14:25:33.247Z,118.83
2023-05-13T14:28:02.991Z,116.60
2023-05-13T14:30:48.343Z,116.20
2023-05-13T14:33:20.205Z,116.03
2023-05-13T14:35:48.066Z,116.37
2023-05-13T14:38:17.162Z,116.47
2023-05-13T14:40:45.530Z,116.20
2023-05-13T14:43:16.559Z,115.97
2023-05-13T14:45:43.779Z,115.60
2023-05-13T14:48:11.864Z,115.77
2023-05-13T14:50:41.173Z,116.10
2023-05-13T14:53:09.478Z,115.87
2023-05-13T14:55:36.636Z,116.07
2023-05-13T14:58:04.340Z,116.00
2023-05-13T15:00:32.802Z,115.57
2023-05-13T15:03:01.116Z,115.90
2023-05-13T15:05:28.360Z,115.67
2023-05-13T15:07:55.556Z,115.90
2023-05-13T15:10:22.805Z,115.80
2023-05-13T15:12:50.486Z,115.07
2023-05-13T15:15:17.545Z,115.77
2023-05-13T15:17:44.623Z,115.50
2023-05-13T15:20:12.470Z,115.83
2023-05-13T15:22:39.578Z,116.07
2023-05-13T15:25:08.207Z,116.17
2023-05-13T15:27:35.307Z,115.80
2023-05-13T15:30:03.143Z,116.17
2023-05-13T15:32:30.714Z,115.47
2023-05-13T15:34:57.782Z,116.20
2023-05-13T15:37:24.869Z,115.80
2023-05-13T15:39:53.460Z,115.80
2023-05-13T15:42:21.332Z,115.40
2023-05-13T15:44:48.447Z,115.87
2023-05-13T15:47:15.650Z,116.37
2023-05-13T15:49:42.761Z,116.30
2023-05-13T15:52:09.780Z,115.83
2023-05-13T15:54:37.185Z,116.27
2023-05-13T15:57:04.870Z,116.47
2023-05-13T15:59:32.003Z,116.17
2023-05-13T16:01:59.506Z,116.80
2023-05-13T16:04:26.624Z,116.00
2023-05-13T16:06:53.801Z,115.90
2023-05-13T16:09:20.770Z,116.00
2023-05-13T16:11:47.804Z,116.10
2023-05-13T16:14:19.636Z,116.10
2023-05-13T16:16:48.080Z,115.60
2023-05-13T16:19:18.209Z,115.93
2023-05-13T16:21:46.348Z,116.17
2023-05-13T16:24:14.704Z,116.50
2023-05-13T16:26:42.218Z,116.10
2023-05-13T16:29:09.861Z,116.50
2023-05-13T16:31:37.300Z,116.40
2023-05-13T16:34:05.408Z,116.67
2023-05-13T16:36:33.028Z,116.00
2023-05-13T16:39:00.524Z,116.93
2023-05-13T16:41:27.540Z,116.40
2023-05-13T16:43:54.982Z,116.60
2023-05-13T16:46:22.669Z,116.50
2023-05-13T16:48:49.687Z,116.67
2023-05-13T16:51:17.191Z,116.13
2023-05-13T16:53:44.789Z,116.43
2023-05-13T16:56:11.868Z,116.90
2023-05-13T16:58:39.445Z,116.70
2023-05-13T17:01:06.972Z,116.70
2023-05-13T17:03:34.992Z,116.87
2023-05-13T17:06:03.063Z,116.80
2023-05-13T17:08:30.524Z,117.07
2023-05-13T17:10:59.541Z,116.77
2023-05-13T17:13:26.629Z,116.60
2023-05-13T17:15:54.264Z,116.60
2023-05-13T17:18:21.773Z,116.80
2023-05-13T17:20:49.827Z,116.07
2023-05-13T17:23:17.397Z,116.60
2023-05-13T17:25:44.848Z,116.53
2023-05-13T17:28:12.318Z,117.27
2023-05-13T17:30:39.798Z,116.80
2023-05-13T17:33:07.235Z,117.20
2023-05-13T17:35:34.267Z,117.10
2023-05-13T17:38:01.837Z,117.60
2023-05-13T17:40:29.325Z,116.93
2023-05-13T17:42:56.777Z,117.97
2023-05-13T17:45:24.317Z,118.13
2023-05-13T17:47:51.956Z,117.80
2023-05-13T17:50:19.538Z,117.50
2023-05-13T17:52:47.045Z,117.40
2023-05-13T17:55:14.097Z,117.93
2023-05-13T17:57:41.759Z,117.97
2023-05-13T18:00:09.733Z,117.50
2023-05-13T18:02:37.288Z,117.53
2023-05-13T18:05:06.304Z,118.07
2023-05-13T18:07:33.975Z,117.90
2023-05-13T18:10:01.898Z,117.80
2023-05-13T18:12:30.029Z,118.00
2023-05-13T18:14:57.603Z,117.60
2023-05-13T18:17:25.869Z,118.07
2023-05-13T18:19:53.235Z,117.90
2023-05-13T18:22:20.676Z,118.07
2023-05-13T18:24:48.411Z,118.27
2023-05-13T18:27:16.164Z,118.00
2023-05-13T18:29:43.165Z,118.20
2023-05-13T18:32:10.302Z,117.90
2023-05-13T18:34:37.964Z,118.40
2023-05-13T18:37:06.375Z,118.40
2023-05-13T18:39:33.998Z,118.60
2023-05-13T18:42:01.480Z,118.17
2023-05-13T18:44:29.597Z,118.10
2023-05-13T18:46:56.668Z,117.07
2023-05-13T18:49:28.122Z,118.27
2023-05-13T18:51:56.090Z,118.13
2023-05-13T18:54:25.598Z,118.10
2023-05-13T18:56:53.502Z,118.70
2023-05-13T18:59:20.936Z,118.87
2023-05-13T19:01:48.679Z,118.50
2023-05-13T19:04:16.720Z,118.07
2023-05-13T19:06:44.883Z,118.50
2023-05-13T19:09:12.461Z,118.37
2023-05-13T19:11:40.244Z,118.57
2023-05-13T19:14:07.525Z,118.17
2023-05-13T19:16:35.203Z,117.93
2023-05-13T19:19:02.526Z,118.43
2023-05-13T19:21:30.794Z,118.23
2023-05-13T19:23:58.610Z,118.40
2023-05-13T19:26:25.958Z,117.90
2023-05-13T19:28:53.481Z,118.10
2023-05-13T19:31:21.851Z,118.30
2023-05-13T19:33:50.089Z,118.03
2023-05-13T19:36:17.133Z,118.20
2023-05-13T19:38:44.750Z,118.40
2023-05-13T19:41:12.237Z,118.37
2023-05-13T19:43:39.357Z,118.27
2023-05-13T19:46:06.835Z,118.27
2023-05-13T19:48:34.515Z,118.50
2023-05-13T19:51:01.493Z,118.20
2023-05-13T19:53:30.494Z,117.77
2023-05-13T19:55:57.483Z,118.00
2023-05-13T19:58:24.610Z,117.97
2023-05-13T20:00:52.061Z,118.40
2023-05-13T20:03:19.599Z,118.10
2023-05-13T20:05:48.723Z,118.10
2023-05-13T20:08:15.872Z,117.87
2023-05-13T20:10:45.153Z,118.40
2023-05-13T20:13:12.899Z,118.67
2023-05-13T20:15:42.125Z,118.00
2023-05-13T20:18:09.236Z,118.37
2023-05-13T20:20:36.969Z,118.57
2023-05-13T20:23:04.371Z,118.40
2023-05-13T20:25:31.879Z,118.30
2023-05-13T20:28:00.198Z,118.67
2023-05-13T20:30:27.624Z,118.93
2023-05-13T20:32:54.837Z,116.43
2023-05-13T20:35:22.406Z,119.00
2023-05-13T20:37:49.998Z,118.50
2023-05-13T20:40:17.018Z,118.17
2023-05-13T20:42:44.124Z,118.70
2023-05-13T20:45:12.652Z,118.60
2023-05-13T20:47:40.703Z,117.80
2023-05-13T20:50:08.720Z,118.30
2023-05-13T20:52:36.271Z,118.70
2023-05-13T20:55:04.867Z,118.47
2023-05-13T20:57:32.962Z,118.97
2023-05-13T21:00:00.418Z,119.07
2023-05-13T21:02:27.462Z,118.50
2023-05-13T21:04:54.867Z,119.20
2023-05-13T21:07:22.291Z,118.67
2023-05-13T21:09:49.765Z,118.47
2023-05-13T21:12:16.756Z,118.67
2023-05-13T21:14:44.208Z,117.57
2023-05-13T21:17:11.938Z,118.10
2023-05-13T21:19:38.903Z,118.77
2023-05-13T21:22:06.337Z,117.67
2023-05-13T21:24:33.727Z,118.87
2023-05-13T21:27:01.184Z,117.57
2023-05-13T21:29:30.034Z,118.37
2023-05-13T21:31:57.568Z,118.30
2023-05-13T21:34:24.697Z,118.10
2023-05-13T21:36:52.702Z,117.90
2023-05-13T21:39:20.656Z,118.50
2023-05-13T21:41:48.414Z,118.17
2023-05-13T21:44:16.156Z,117.93
2023-05-13T21:46:43.586Z,117.80
2023-05-13T21:49:11.786Z,118.27
2023-05-13T21:51:39.266Z,118.27
2023-05-13T21:54:06.283Z,118.17
2023-05-13T21:56:33.741Z,118.07
2023-05-13T21:59:01.169Z,117.80
2023-05-13T22:01:28.530Z,118.07
2023-05-13T22:03:56.026Z,118.17
2023-05-13T22:06:23.479Z,118.07
2023-05-13T22:08:50.500Z,117.63
2023-05-13T22:11:17.959Z,118.37
2023-05-13T22:13:44.948Z,117.80
2023-05-13T22:16:14.215Z,117.90
2023-05-13T22:18:41.807Z,117.87
2023-05-13T22:21:09.321Z,117.77
2023-05-13T22:23:37.160Z,118.17
2023-05-13T22:26:04.934Z,118.10
2023-05-13T22:28:32.390Z,118.07
2023-05-13T22:30:59.632Z,117.83
2023-05-13T22:33:27.214Z,118.03
2023-05-13T22:35:54.255Z,118.00
2023-05-13T22:38:21.230Z,117.93
2023-05-13T22:40:48.696Z,117.73
2023-05-13T22:43:15.774Z,118.00
2023-05-13T22:45:43.315Z,118.10
2023-05-13T22:48:10.497Z,117.67
2023-05-13T22:50:38.074Z,118.30
2023-05-13T22:53:05.500Z,117.60
2023-05-13T22:55:32.879Z,117.70
2023-05-13T22:58:00.715Z,118.57
2023-05-13T23:00:27.708Z,117.50
2023-05-13T23:02:55.855Z,118.70
2023-05-13T23:05:23.358Z,118.10
2023-05-13T23:07:50.440Z,116.80
2023-05-13T23:10:17.914Z,117.30
2023-05-13T23:12:45.380Z,118.70
2023-05-13T23:15:14.696Z,118.47
2023-05-13T23:17:42.161Z,117.27
2023-05-13T23:20:10.903Z,118.03
2023-05-13T23:22:38.580Z,118.43
2023-05-13T23:25:07.423Z,118.70
2023-05-13T23:27:35.303Z,119.07
2023-05-13T23:30:02.728Z,118.50
2023-05-13T23:32:30.251Z,117.30
2023-05-13T23:34:57.849Z,118.33
2023-05-13T23:37:24.918Z,118.67
2023-05-13T23:39:52.406Z,118.70
2023-05-13T23:42:19.516Z,118.40
2023-05-13T23:44:46.971Z,116.90
2023-05-13T23:47:14.431Z,118.57
2023-05-13T23:49:41.866Z,118.27
2023-05-13T23:52:09.377Z,118.97
2023-05-13T23:54:36.859Z,117.97
2023-05-13T23:57:04.372Z,119.03
2023-05-13T23:59:31.793Z,118.77
